createdAt,value
2017-05-18T00:01:05.113Z,12.75
2017-05-18T00:03:31.786Z,11.93
2017-05-18T00:05:58.472Z,11.92
2017-05-18T00:08:25.177Z,12.30
2017-05-18T00:10:51.864Z,12.43
2017-05-18T00:13:18.573Z,12.57
2017-05-18T00:15:45.260Z,12.20
2017-05-18T00:18:11.960Z,12.20
2017-05-18T00:20:38.647Z,12.90
2017-05-18T00:23:05.357Z,12.40
2017-05-18T00:25:32.065Z,11.78
2017-05-18T00:27:58.746Z,12.38
2017-05-18T00:30:25.436Z,11.62
2017-05-18T00:32:52.118Z,13.45
2017-05-18T00:35:18.819Z,12.68
2017-05-18T00:37:45.496Z,14.32
2017-05-18T00:40:12.196Z,13.18
2017-05-18T00:42:38.873Z,12.82
2017-05-18T00:45:05.572Z,13.80
2017-05-18T00:47:32.253Z,13.53
2017-05-18T00:49:58.968Z,14.80
2017-05-18T00:52:25.645Z,13.55
2017-05-18T00:54:52.323Z,15.05
2017-05-18T00:57:19.005Z,12.70
2017-05-18T00:59:45.680Z,13.10
2017-05-18T01:02:12.357Z,13.52
2017-05-18T01:04:39.032Z,14.42
2017-05-18T01:07:05.732Z,13.83
2017-05-18T01:09:32.406Z,14.62
2017-05-18T01:11:59.125Z,14.52
2017-05-18T01:14:25.804Z,13.27
2017-05-18T01:16:52.476Z,12.73
2017-05-18T01:19:19.157Z,12.33
2017-05-18T01:21:45.837Z,12.28
2017-05-18T01:24:12.517Z,13.00
2017-05-18T01:26:39.204Z,14.15
2017-05-18T01:29:05.880Z,14.32
2017-05-18T01:31:32.556Z,13.57
2017-05-18T01:33:59.239Z,13.70
2017-05-18T01:36:25.921Z,12.33
2017-05-18T01:38:52.624Z,13.03
2017-05-18T01:41:19.304Z,12.98
2017-05-18T01:43:45.972Z,12.83
2017-05-18T01:46:12.648Z,12.70
2017-05-18T01:48:39.329Z,13.55
2017-05-18T01:51:06.003Z,13.63
2017-05-18T01:53:32.685Z,14.05
2017-05-18T01:55:59.375Z,12.68
2017-05-18T01:58:26.058Z,13.32
2017-05-18T02:00:52.740Z,13.10
2017-05-18T02:03:19.412Z,13.05
2017-05-18T02:05:46.088Z,13.88
2017-05-18T02:08:12.765Z,12.35
2017-05-18T02:10:39.473Z,12.73
2017-05-18T02:13:06.161Z,12.58
2017-05-18T02:15:32.838Z,13.87
2017-05-18T02:17:59.508Z,13.62
2017-05-18T02:20:26.192Z,12.70
2017-05-18T02:22:52.896Z,12.37
2017-05-18T02:25:19.578Z,12.30
2017-05-18T02:27:46.285Z,12.53
2017-05-18T02:30:12.969Z,13.47
2017-05-18T02:32:39.678Z,12.88
2017-05-18T02:35:06.361Z,13.70
2017-05-18T02:37:33.076Z,13.33
2017-05-18T02:39:59.748Z,14.73
2017-05-18T02:42:26.428Z,12.95
2017-05-18T02:44:53.133Z,13.80
2017-05-18T02:47:19.812Z,13.47
2017-05-18T02:49:46.513Z,12.50
2017-05-18T02:52:13.187Z,13.17
2017-05-18T02:54:39.890Z,13.27
2017-05-18T02:57:06.566Z,13.08
2017-05-18T02:59:33.264Z,11.67
2017-05-18T03:01:59.944Z,10.72
2017-05-18T03:04:26.645Z,11.13
2017-05-18T03:06:53.317Z,10.17
2017-05-18T03:09:20.032Z,9.77
2017-05-18T03:11:46.696Z,9.15
2017-05-18T03:14:13.368Z,9.20
2017-05-18T03:16:40.036Z,9.10
2017-05-18T03:19:06.708Z,9.48
2017-05-18T03:21:33.409Z,9.02
2017-05-18T03:24:00.088Z,9.48
2017-05-18T03:26:26.784Z,8.32
2017-05-18T03:28:53.461Z,8.50
2017-05-18T03:31:20.163Z,9.55
2017-05-18T03:33:46.849Z,9.80
2017-05-18T03:36:13.562Z,8.92
2017-05-18T03:38:40.232Z,8.65
2017-05-18T03:41:06.898Z,8.48
2017-05-18T03:43:33.569Z,8.33
2017-05-18T03:46:00.236Z,8.68
2017-05-18T03:48:26.909Z,9.50
2017-05-18T03:50:53.577Z,8.58
2017-05-18T03:53:20.268Z,7.85
2017-05-18T03:55:46.931Z,8.12
2017-05-18T03:58:13.616Z,8.22
2017-05-18T04:00:40.288Z,8.40
2017-05-18T04:03:06.954Z,8.82
2017-05-18T04:05:33.616Z,8.23
2017-05-18T04:08:00.279Z,8.17
2017-05-18T04:10:26.952Z,9.02
2017-05-18T04:12:53.620Z,8.07
2017-05-18T04:15:20.283Z,8.78
2017-05-18T04:17:46.945Z,7.67
2017-05-18T04:20:13.644Z,8.20
2017-05-18T04:22:40.308Z,8.02
2017-05-18T04:25:07.015Z,8.30
2017-05-18T04:27:33.685Z,7.77
2017-05-18T04:30:00.360Z,8.62
2017-05-18T04:32:27.080Z,7.75
2017-05-18T04:34:53.745Z,8.23
2017-05-18T04:37:20.408Z,8.65
2017-05-18T04:39:47.076Z,8.22
2017-05-18T04:42:13.743Z,7.85
2017-05-18T04:44:40.413Z,8.82
2017-05-18T04:47:07.107Z,8.58
2017-05-18T04:49:33.771Z,8.20
2017-05-18T04:52:00.444Z,8.58
2017-05-18T04:54:27.110Z,7.50
2017-05-18T04:56:53.781Z,8.17
2017-05-18T04:59:20.449Z,7.85
2017-05-18T05:01:47.121Z,8.07
2017-05-18T05:04:13.800Z,8.68
2017-05-18T05:06:40.468Z,7.67
2017-05-18T05:09:07.137Z,7.90
2017-05-18T05:11:33.805Z,8.70
2017-05-18T05:14:00.546Z,7.35
2017-05-18T05:16:27.252Z,7.65
2017-05-18T05:18:53.936Z,7.92
2017-05-18T05:21:20.623Z,7.65
2017-05-18T05:23:47.299Z,7.83
2017-05-18T05:26:13.975Z,7.92
2017-05-18T05:28:40.643Z,7.73
2017-05-18T05:31:07.308Z,8.00
2017-05-18T05:33:33.976Z,7.22
2017-05-18T05:36:00.641Z,6.80
2017-05-18T05:38:27.312Z,7.00
2017-05-18T05:40:53.975Z,6.88
2017-05-18T05:43:20.644Z,6.72
2017-05-18T05:45:47.316Z,6.44
2017-05-18T05:48:13.987Z,6.48
2017-05-18T05:50:40.656Z,6.08
2017-05-18T05:53:07.349Z,6.52
2017-05-18T05:55:34.016Z,6.10
2017-05-18T05:58:00.700Z,6.34
2017-05-18T06:00:27.361Z,5.88
2017-05-18T06:05:27.211Z,5.60
2017-05-18T06:07:53.919Z,6.02
2017-05-18T06:10:20.592Z,6.24
2017-05-18T06:12:47.261Z,5.60
2017-05-18T06:15:13.928Z,5.92
2017-05-18T06:17:40.597Z,5.96
2017-05-18T06:20:07.287Z,5.90
2017-05-18T06:22:33.953Z,5.94
2017-05-18T06:25:00.644Z,5.74
2017-05-18T06:27:27.309Z,6.40
2017-05-18T06:29:54.002Z,5.96
2017-05-18T06:32:20.670Z,5.48
2017-05-18T06:34:47.361Z,6.20
2017-05-18T06:37:14.032Z,6.16
2017-05-18T06:39:40.697Z,5.62
2017-05-18T06:42:07.363Z,6.46
2017-05-18T06:44:34.026Z,5.42
2017-05-18T06:47:00.723Z,5.84
2017-05-18T06:49:27.401Z,5.86
2017-05-18T06:51:54.087Z,5.82
2017-05-18T06:54:20.751Z,6.16
2017-05-18T06:56:47.444Z,5.86
2017-05-18T06:59:14.103Z,5.90
2017-05-18T07:01:40.769Z,5.62
2017-05-18T07:04:07.440Z,5.70
2017-05-18T07:06:34.106Z,5.58
2017-05-18T07:09:00.767Z,5.48
2017-05-18T07:11:27.431Z,5.30
2017-05-18T07:13:54.094Z,6.08
2017-05-18T07:16:20.752Z,5.32
2017-05-18T07:18:47.416Z,5.52
2017-05-18T07:21:14.083Z,5.32
2017-05-18T07:23:40.776Z,5.78
2017-05-18T07:26:07.444Z,4.80
2017-05-18T07:28:34.145Z,5.50
2017-05-18T07:31:00.812Z,5.76
2017-05-18T07:33:27.472Z,5.22
2017-05-18T07:35:54.136Z,5.36
2017-05-18T07:38:20.805Z,5.20
2017-05-18T07:40:47.484Z,5.48
2017-05-18T07:43:14.149Z,4.72
2017-05-18T07:45:40.816Z,5.20
2017-05-18T07:48:07.484Z,5.38
2017-05-18T07:50:34.148Z,4.82
2017-05-18T07:53:00.808Z,5.28
2017-05-18T07:55:28.226Z,5.84
2017-05-18T07:57:54.893Z,5.48
2017-05-18T08:00:21.590Z,4.90
2017-05-18T08:02:48.253Z,5.30
2017-05-18T08:05:14.917Z,5.32
2017-05-18T08:07:41.852Z,5.24
2017-05-18T08:10:10.396Z,5.46
2017-05-18T08:12:37.130Z,5.88
2017-05-18T08:15:03.797Z,4.80
2017-05-18T08:17:30.455Z,5.02
2017-05-18T08:19:57.120Z,5.42
2017-05-18T08:22:23.785Z,5.28
2017-05-18T08:24:50.451Z,5.12
2017-05-18T08:27:17.115Z,5.32
2017-05-18T08:29:43.810Z,5.38
2017-05-18T08:32:10.477Z,5.40
2017-05-18T08:34:37.148Z,5.08
2017-05-18T08:37:04.076Z,5.84
2017-05-18T08:39:30.750Z,5.50
2017-05-18T08:41:57.461Z,5.72
2017-05-18T08:44:24.130Z,5.76
2017-05-18T08:46:50.795Z,5.14
2017-05-18T08:49:17.456Z,5.10
2017-05-18T08:51:44.120Z,5.28
2017-05-18T08:54:10.789Z,5.10
2017-05-18T08:56:37.460Z,5.30
2017-05-18T08:59:04.130Z,5.58
2017-05-18T09:01:30.798Z,5.08
2017-05-18T09:03:57.616Z,5.06
2017-05-18T09:06:24.283Z,4.76
2017-05-18T09:08:50.944Z,4.96
2017-05-18T09:11:17.608Z,5.00
2017-05-18T09:13:44.273Z,4.76
2017-05-18T09:16:10.953Z,5.28
2017-05-18T09:18:37.620Z,5.62
2017-05-18T09:21:04.288Z,4.80
2017-05-18T09:23:30.955Z,4.64
2017-05-18T09:25:57.624Z,5.40
2017-05-18T09:28:24.324Z,4.82
2017-05-18T09:30:50.993Z,5.44
2017-05-18T09:33:17.657Z,5.12
2017-05-18T09:35:44.320Z,5.58
2017-05-18T09:38:10.987Z,5.18
2017-05-18T09:40:37.651Z,5.02
2017-05-18T09:43:04.374Z,5.20
2017-05-18T09:45:31.048Z,5.02
2017-05-18T09:47:57.780Z,5.02
2017-05-18T09:50:24.448Z,4.54
2017-05-18T09:52:51.117Z,4.84
2017-05-18T09:55:17.784Z,5.28
2017-05-18T09:57:44.473Z,5.02
2017-05-18T10:00:11.154Z,5.48
2017-05-18T10:02:37.825Z,4.86
2017-05-18T10:05:04.495Z,4.80
2017-05-18T10:07:31.168Z,4.30
2017-05-18T10:09:57.840Z,4.30
2017-05-18T10:12:24.514Z,4.20
2017-05-18T10:14:51.177Z,4.16
2017-05-18T10:17:17.849Z,4.52
2017-05-18T10:19:44.522Z,4.28
2017-05-18T10:22:11.193Z,4.32
2017-05-18T10:24:37.870Z,4.52
2017-05-18T10:27:04.532Z,3.82
2017-05-18T10:29:31.195Z,4.10
2017-05-18T10:31:57.871Z,3.84
2017-05-18T10:34:24.532Z,4.10
2017-05-18T10:36:51.193Z,3.96
2017-05-18T10:39:17.864Z,4.10
2017-05-18T10:41:44.544Z,4.16
2017-05-18T10:44:11.217Z,4.28
2017-05-18T10:46:37.888Z,4.00
2017-05-18T10:49:04.560Z,3.90
2017-05-18T10:51:31.228Z,4.46
2017-05-18T10:53:57.896Z,4.40
2017-05-18T10:56:24.575Z,4.60
2017-05-18T10:58:51.242Z,4.26
2017-05-18T11:01:17.913Z,4.20
2017-05-18T11:03:44.581Z,4.52
2017-05-18T11:06:11.256Z,5.26
2017-05-18T11:08:37.928Z,4.38
2017-05-18T11:11:04.600Z,4.98
2017-05-18T11:13:31.264Z,4.54
2017-05-18T11:15:57.928Z,4.98
2017-05-18T11:18:24.592Z,5.76
2017-05-18T11:20:51.263Z,5.26
2017-05-18T11:23:17.933Z,4.94
2017-05-18T11:25:44.599Z,4.36
2017-05-18T11:28:11.267Z,5.06
2017-05-18T11:30:37.940Z,4.78
2017-05-18T11:33:04.605Z,5.06
2017-05-18T11:35:31.313Z,5.72
2017-05-18T11:37:57.977Z,5.10
2017-05-18T11:40:24.661Z,5.80
2017-05-18T11:42:51.343Z,5.56
2017-05-18T11:45:18.252Z,5.70
2017-05-18T11:47:45.036Z,5.22
2017-05-18T11:50:11.698Z,5.00
2017-05-18T11:52:38.361Z,5.18
2017-05-18T11:55:05.029Z,5.02
2017-05-18T11:57:31.695Z,5.16
2017-05-18T11:59:58.357Z,4.80
2017-05-18T12:02:25.024Z,5.50
2017-05-18T12:04:51.692Z,6.02
2017-05-18T12:07:18.381Z,5.90
2017-05-18T12:09:45.058Z,5.38
2017-05-18T12:12:11.748Z,6.24
2017-05-18T12:14:38.442Z,6.46
2017-05-18T12:17:05.112Z,6.52
2017-05-18T12:19:31.783Z,6.60
2017-05-18T12:21:58.450Z,7.08
2017-05-18T12:24:25.116Z,6.80
2017-05-18T12:26:51.780Z,6.28
2017-05-18T12:29:18.468Z,6.72
2017-05-18T12:31:45.128Z,6.68
2017-05-18T12:34:11.804Z,6.70
2017-05-18T12:36:38.477Z,6.90
2017-05-18T12:39:05.155Z,5.86
2017-05-18T12:41:31.817Z,6.02
2017-05-18T12:43:58.490Z,5.88
2017-05-18T12:46:25.188Z,6.12
2017-05-18T12:48:51.861Z,6.60
2017-05-18T12:51:18.526Z,5.40
2017-05-18T12:53:45.191Z,6.30
2017-05-18T12:56:11.854Z,5.02
2017-05-18T12:58:38.522Z,5.90
2017-05-18T13:01:05.192Z,5.60
2017-05-18T13:03:31.860Z,6.00
2017-05-18T13:05:58.534Z,5.64
2017-05-18T13:08:25.205Z,5.60
2017-05-18T13:10:51.884Z,5.50
2017-05-18T13:13:18.550Z,6.00
2017-05-18T13:15:45.216Z,6.00
2017-05-18T13:18:11.891Z,5.64
2017-05-18T13:20:38.561Z,5.86
2017-05-18T13:23:05.228Z,5.48
2017-05-18T13:25:32.293Z,6.28
2017-05-18T13:27:59.072Z,6.10
2017-05-18T13:30:25.743Z,6.16
2017-05-18T13:32:52.446Z,6.18
2017-05-18T13:35:19.115Z,5.60
2017-05-18T13:37:45.824Z,5.48
2017-05-18T13:40:12.493Z,5.82
2017-05-18T13:42:39.173Z,5.70
2017-05-18T13:45:05.852Z,5.60
2017-05-18T13:47:32.516Z,6.06
2017-05-18T13:49:59.213Z,5.80
2017-05-18T13:52:25.880Z,5.90
2017-05-18T13:54:52.568Z,5.90
2017-05-18T13:57:19.240Z,6.42
2017-05-18T13:59:45.932Z,6.60
2017-05-18T14:02:12.600Z,7.36
2017-05-18T14:04:39.268Z,6.74
2017-05-18T14:07:05.938Z,7.76
2017-05-18T14:09:32.615Z,6.98
2017-05-18T14:11:59.288Z,8.50
2017-05-18T14:14:25.957Z,8.06
2017-05-18T14:16:52.651Z,8.80
2017-05-18T14:19:19.338Z,9.26
2017-05-18T14:21:46.054Z,9.78
2017-05-18T14:24:12.738Z,10.98
2017-05-18T14:26:39.404Z,11.44
2017-05-18T14:29:06.084Z,12.24
2017-05-18T14:31:32.752Z,12.76
2017-05-18T14:33:59.425Z,13.14
2017-05-18T14:36:26.100Z,14.42
2017-05-18T14:38:52.776Z,17.22
2017-05-18T14:41:19.448Z,17.16
2017-05-18T14:43:46.145Z,19.30
2017-05-18T14:46:12.822Z,18.98
2017-05-18T14:48:39.524Z,21.10
2017-05-18T14:51:06.204Z,20.16
2017-05-18T14:53:32.936Z,21.48
2017-05-18T14:55:59.614Z,21.92
2017-05-18T14:58:26.296Z,21.44
2017-05-18T15:00:52.968Z,20.22
2017-05-18T15:03:19.648Z,20.76
2017-05-18T15:05:46.333Z,24.04
2017-05-18T15:08:13.019Z,23.90
2017-05-18T15:10:39.749Z,26.65
2017-05-18T15:13:06.457Z,30.37
2017-05-18T15:15:33.184Z,31.07
2017-05-18T15:17:59.896Z,30.87
2017-05-18T15:20:26.612Z,31.58
2017-05-18T15:22:53.295Z,29.93
2017-05-18T15:25:20.821Z,36.30
2017-05-18T15:27:47.497Z,34.78
2017-05-18T15:30:14.193Z,30.47
2017-05-18T15:32:40.904Z,28.03
2017-05-18T15:35:07.625Z,28.00
2017-05-18T15:37:34.360Z,33.20
2017-05-18T15:40:01.073Z,36.58
2017-05-18T15:42:27.761Z,42.83
2017-05-18T15:44:54.448Z,31.67
2017-05-18T15:47:21.142Z,30.80
2017-05-18T15:49:47.851Z,30.30
2017-05-18T15:52:14.558Z,33.22
2017-05-18T15:54:41.276Z,35.70
2017-05-18T15:57:07.956Z,32.28
2017-05-18T15:59:34.663Z,31.92
2017-05-18T16:02:01.344Z,29.53
2017-05-18T16:04:28.057Z,26.25
2017-05-18T16:06:54.741Z,23.47
2017-05-18T16:09:21.433Z,22.60
2017-05-18T16:11:48.129Z,23.95
2017-05-18T16:14:14.816Z,25.72
2017-05-18T16:16:41.508Z,27.08
2017-05-18T16:19:08.203Z,31.96
2017-05-18T16:21:34.880Z,35.64
2017-05-18T16:24:02.550Z,38.13
2017-05-18T16:26:29.257Z,36.33
2017-05-18T16:28:55.944Z,39.75
2017-05-18T16:31:22.624Z,41.45
2017-05-18T16:33:49.315Z,39.88
2017-05-18T16:36:15.997Z,41.28
2017-05-18T16:38:42.684Z,41.60
2017-05-18T16:41:09.364Z,38.38
2017-05-18T16:43:36.055Z,40.75
2017-05-18T16:46:02.733Z,39.88
2017-05-18T16:48:29.481Z,38.26
2017-05-18T16:50:56.149Z,37.08
2017-05-18T16:53:22.844Z,41.26
2017-05-18T16:55:49.521Z,40.30
2017-05-18T16:58:16.193Z,39.36
2017-05-18T17:00:42.868Z,42.00
2017-05-18T17:03:09.548Z,44.26
2017-05-18T17:05:36.220Z,42.66
2017-05-18T17:08:02.899Z,43.10
2017-05-18T17:10:29.600Z,44.34
2017-05-18T17:12:56.275Z,43.76
2017-05-18T17:15:22.980Z,44.28
2017-05-18T17:17:49.648Z,41.72
2017-05-18T17:20:16.320Z,46.44
2017-05-18T17:22:42.994Z,48.10
2017-05-18T17:25:09.674Z,46.40
2017-05-18T17:27:36.348Z,52.06
2017-05-18T17:30:03.031Z,49.37
2017-05-18T17:32:29.709Z,49.72
2017-05-18T17:34:56.380Z,50.24
2017-05-18T17:37:23.064Z,51.25
2017-05-18T17:39:49.756Z,52.25
2017-05-18T17:42:16.438Z,50.38
2017-05-18T17:44:43.121Z,57.10
2017-05-18T17:47:09.800Z,49.63
2017-05-18T17:49:36.484Z,54.47
2017-05-18T17:52:03.165Z,48.77
2017-05-18T17:54:29.847Z,51.93
2017-05-18T17:56:56.535Z,52.68
2017-05-18T17:59:23.237Z,54.08
2017-05-18T18:01:49.930Z,52.92
2017-05-18T18:04:16.624Z,57.60
2017-05-18T18:06:43.304Z,55.95
2017-05-18T18:09:09.985Z,53.27
2017-05-18T18:11:36.664Z,51.57
2017-05-18T18:14:03.344Z,56.40
2017-05-18T18:16:30.024Z,53.25
2017-05-18T18:18:56.705Z,58.57
2017-05-18T18:21:23.387Z,59.78
2017-05-18T18:23:50.068Z,68.58
2017-05-18T18:26:16.760Z,63.35
2017-05-18T18:28:43.440Z,61.50
2017-05-18T18:31:10.119Z,62.50
2017-05-18T18:33:37.209Z,59.62
2017-05-18T18:36:03.896Z,65.52
2017-05-18T18:38:30.571Z,62.47
2017-05-18T18:43:32.136Z,71.03
2017-05-18T18:45:58.890Z,66.70
2017-05-18T18:48:25.668Z,65.35
2017-05-18T18:50:52.453Z,64.05
2017-05-18T18:53:19.154Z,63.47
2017-05-18T18:55:45.869Z,64.45
2017-05-18T18:58:12.551Z,65.42
2017-05-18T19:00:39.260Z,73.47
2017-05-18T19:03:05.932Z,72.00
2017-05-18T19:05:32.612Z,69.22
2017-05-18T19:07:59.289Z,75.07
2017-05-18T19:10:25.964Z,71.85
2017-05-18T19:12:52.638Z,71.67
2017-05-18T19:15:19.323Z,72.95
2017-05-18T19:17:46.000Z,67.08
2017-05-18T19:20:12.704Z,66.05
2017-05-18T19:22:39.376Z,66.72
2017-05-18T19:25:06.056Z,68.08
2017-05-18T19:27:32.734Z,67.08
2017-05-18T19:29:59.417Z,64.72
2017-05-18T19:32:26.092Z,64.48
2017-05-18T19:34:52.769Z,63.83
2017-05-18T19:37:19.496Z,69.75
2017-05-18T19:39:46.176Z,65.58
2017-05-18T19:42:12.864Z,74.40
2017-05-18T19:44:39.537Z,68.35
2017-05-18T19:47:06.211Z,74.62
2017-05-18T19:49:32.888Z,73.15
2017-05-18T19:51:59.580Z,71.07
2017-05-18T19:54:26.253Z,73.02
2017-05-18T19:56:52.929Z,82.75
2017-05-18T19:59:19.607Z,83.35
2017-05-18T20:01:46.276Z,81.50
2017-05-18T20:04:12.952Z,90.47
2017-05-18T20:06:39.636Z,94.05
2017-05-18T20:09:06.342Z,81.67
2017-05-18T20:11:33.036Z,92.53
2017-05-18T20:13:59.716Z,81.45
2017-05-18T20:16:26.397Z,82.40
2017-05-18T20:18:53.077Z,84.03
2017-05-18T20:21:19.804Z,86.87
2017-05-18T20:23:46.482Z,88.13
2017-05-18T20:26:13.160Z,83.47
2017-05-18T20:28:39.849Z,84.93
2017-05-18T20:31:06.528Z,82.42
2017-05-18T20:33:33.242Z,82.62
2017-05-18T20:35:59.980Z,80.38
2017-05-18T20:38:26.702Z,88.75
2017-05-18T20:40:53.856Z,85.97
2017-05-18T20:43:20.581Z,75.05
2017-05-18T20:45:47.255Z,81.88
2017-05-18T20:48:13.941Z,80.92
2017-05-18T20:50:40.625Z,84.85
2017-05-18T20:53:07.301Z,79.43
2017-05-18T20:55:33.972Z,81.38
2017-05-18T20:58:00.652Z,74.17
2017-05-18T21:00:27.325Z,77.55
2017-05-18T21:02:54.024Z,79.23
2017-05-18T21:05:20.712Z,76.68
2017-05-18T21:07:47.389Z,73.70
2017-05-18T21:10:14.069Z,74.18
2017-05-18T21:12:40.745Z,70.73
2017-05-18T21:15:07.432Z,74.23
2017-05-18T21:17:34.133Z,72.60
2017-05-18T21:20:01.045Z,76.42
2017-05-18T21:22:27.744Z,73.42
2017-05-18T21:24:54.433Z,71.28
2017-05-18T21:27:21.114Z,68.57
2017-05-18T21:29:47.788Z,68.13
2017-05-18T21:32:14.472Z,73.07
2017-05-18T21:34:41.154Z,71.13
2017-05-18T21:37:07.833Z,71.37
2017-05-18T21:39:34.508Z,69.70
2017-05-18T21:42:01.735Z,64.38
2017-05-18T21:44:28.412Z,63.68
2017-05-18T21:46:55.091Z,63.98
2017-05-18T21:49:21.773Z,69.65
2017-05-18T21:51:48.452Z,65.72
2017-05-18T21:54:15.158Z,66.10
2017-05-18T21:56:41.933Z,63.38
2017-05-18T21:59:08.623Z,64.17
2017-05-18T22:01:35.309Z,61.88
2017-05-18T22:04:01.989Z,66.95
2017-05-18T22:06:28.677Z,58.50
2017-05-18T22:08:55.358Z,59.80
2017-05-18T22:11:22.036Z,62.00
2017-05-18T22:13:48.707Z,61.37
2017-05-18T22:16:15.393Z,67.73
2017-05-18T22:18:42.074Z,64.32
2017-05-18T22:21:08.752Z,58.67
2017-05-18T22:23:35.436Z,60.87
2017-05-18T22:26:02.121Z,60.88
2017-05-18T22:28:28.797Z,59.13
2017-05-18T22:30:55.473Z,61.75
2017-05-18T22:33:22.162Z,62.43
2017-05-18T22:35:48.840Z,61.70
2017-05-18T22:38:15.511Z,62.33
2017-05-18T22:40:42.196Z,61.23
2017-05-18T22:43:08.872Z,65.48
2017-05-18T22:45:35.553Z,63.98
2017-05-18T22:48:02.229Z,64.25
2017-05-18T22:50:28.912Z,60.88
2017-05-18T22:52:55.584Z,60.17
2017-05-18T22:55:22.279Z,60.88
2017-05-18T22:57:48.978Z,61.32
2017-05-18T23:00:15.684Z,62.07
2017-05-18T23:02:42.382Z,58.85
2017-05-18T23:05:09.135Z,55.25
2017-05-18T23:07:35.808Z,61.20
2017-05-18T23:10:02.509Z,60.00
2017-05-18T23:12:29.410Z,59.85
2017-05-18T23:14:56.089Z,60.33
2017-05-18T23:17:22.829Z,57.20
2017-05-18T23:19:49.492Z,58.60
2017-05-18T23:22:16.167Z,57.90
2017-05-18T23:24:42.851Z,58.67
2017-05-18T23:27:09.537Z,56.53
2017-05-18T23:29:36.212Z,57.03
2017-05-18T23:32:02.886Z,60.32
2017-05-18T23:34:29.564Z,58.53
2017-05-18T23:36:56.252Z,62.72
2017-05-18T23:39:22.933Z,62.00
2017-05-18T23:41:49.617Z,61.18
2017-05-18T23:44:16.300Z,62.08
2017-05-18T23:46:42.977Z,65.45
2017-05-18T23:49:09.657Z,65.80
2017-05-18T23:51:36.347Z,65.10
2017-05-18T23:54:03.028Z,65.87
2017-05-18T23:56:29.729Z,69.53
2017-05-18T23:58:56.413Z,70.65
